sensor_id;sensor_type;location;lat;lon;timestamp;P1;durP1;ratioP1;P2;durP2;ratioP2
33740;SDS011;20065;48.380;10.892;2023-10-09T00:00:27;19.27;;;6.60;;
33740;SDS011;20065;48.380;10.892;2023-10-09T00:03:17;19.90;;;6.80;;
33740;SDS011;20065;48.380;10.892;2023-10-09T00:06:04;18.80;;;5.93;;
33740;SDS011;20065;48.380;10.892;2023-10-09T00:08:50;26.33;;;8.00;;
33740;SDS011;20065;48.380;10.892;2023-10-09T00:11:40;22.10;;;6.97;;
33740;SDS011;20065;48.380;10.892;2023-10-09T00:14:30;23.93;;;7.10;;
33740;SDS011;20065;48.380;10.892;2023-10-09T00:17:19;22.73;;;6.90;;
33740;SDS011;20065;48.380;10.892;2023-10-09T00:20:05;20.83;;;7.27;;
33740;SDS011;20065;48.380;10.892;2023-10-09T00:23:03;21.63;;;6.60;;
33740;SDS011;20065;48.380;10.892;2023-10-09T00:25:58;23.37;;;7.10;;
33740;SDS011;20065;48.380;10.892;2023-10-09T00:29:06;22.57;;;7.37;;
33740;SDS011;20065;48.380;10.892;2023-10-09T00:31:53;18.50;;;7.00;;
33740;SDS011;20065;48.380;10.892;2023-10-09T00:34:59;25.63;;;7.90;;
33740;SDS011;20065;48.380;10.892;2023-10-09T00:38:05;20.53;;;7.43;;
33740;SDS011;20065;48.380;10.892;2023-10-09T00:41:21;25.90;;;8.60;;
33740;SDS011;20065;48.380;10.892;2023-10-09T00:44:14;20.70;;;6.43;;
33740;SDS011;20065;48.380;10.892;2023-10-09T00:47:00;22.63;;;6.77;;
33740;SDS011;20065;48.380;10.892;2023-10-09T00:49:57;20.00;;;7.63;;
33740;SDS011;20065;48.380;10.892;2023-10-09T00:52:54;21.63;;;6.97;;
33740;SDS011;20065;48.380;10.892;2023-10-09T00:55:51;23.50;;;7.10;;
33740;SDS011;20065;48.380;10.892;2023-10-09T00:58:41;18.90;;;7.00;;
33740;SDS011;20065;48.380;10.892;2023-10-09T01:01:28;20.67;;;7.37;;
33740;SDS011;20065;48.380;10.892;2023-10-09T01:04:20;20.20;;;7.00;;
33740;SDS011;20065;48.380;10.892;2023-10-09T01:07:07;21.30;;;7.33;;
33740;SDS011;20065;48.380;10.892;2023-10-09T01:10:01;25.30;;;6.73;;
33740;SDS011;20065;48.380;10.892;2023-10-09T01:13:08;22.03;;;7.70;;
33740;SDS011;20065;48.380;10.892;2023-10-09T01:15:55;18.97;;;6.63;;
33740;SDS011;20065;48.380;10.892;2023-10-09T01:18:47;16.57;;;6.47;;
33740;SDS011;20065;48.380;10.892;2023-10-09T01:21:35;20.80;;;6.80;;
33740;SDS011;20065;48.380;10.892;2023-10-09T01:24:21;21.10;;;7.10;;
33740;SDS011;20065;48.380;10.892;2023-10-09T01:27:08;17.80;;;6.90;;
33740;SDS011;20065;48.380;10.892;2023-10-09T01:30:00;28.90;;;7.60;;
33740;SDS011;20065;48.380;10.892;2023-10-09T01:32:46;16.33;;;6.63;;
33740;SDS011;20065;48.380;10.892;2023-10-09T01:35:33;20.67;;;6.57;;
33740;SDS011;20065;48.380;10.892;2023-10-09T01:38:19;21.90;;;6.83;;
33740;SDS011;20065;48.380;10.892;2023-10-09T01:41:17;23.10;;;7.83;;
33740;SDS011;20065;48.380;10.892;2023-10-09T01:44:05;25.10;;;8.47;;
33740;SDS011;20065;48.380;10.892;2023-10-09T01:46:55;16.60;;;6.40;;
33740;SDS011;20065;48.380;10.892;2023-10-09T01:49:43;20.03;;;7.40;;
33740;SDS011;20065;48.380;10.892;2023-10-09T01:52:34;21.33;;;7.00;;
33740;SDS011;20065;48.380;10.892;2023-10-09T01:55:23;29.37;;;7.60;;
33740;SDS011;20065;48.380;10.892;2023-10-09T01:58:25;17.13;;;6.67;;
33740;SDS011;20065;48.380;10.892;2023-10-09T02:01:17;18.67;;;6.17;;
33740;SDS011;20065;48.380;10.892;2023-10-09T02:04:04;20.40;;;7.77;;
33740;SDS011;20065;48.380;10.892;2023-10-09T02:06:56;23.10;;;6.70;;
33740;SDS011;20065;48.380;10.892;2023-10-09T02:09:43;17.67;;;6.07;;
33740;SDS011;20065;48.380;10.892;2023-10-09T02:12:32;20.03;;;7.33;;
33740;SDS011;20065;48.380;10.892;2023-10-09T02:15:19;19.10;;;7.30;;
33740;SDS011;20065;48.380;10.892;2023-10-09T02:18:25;20.77;;;7.03;;
33740;SDS011;20065;48.380;10.892;2023-10-09T02:21:12;22.37;;;6.67;;
33740;SDS011;20065;48.380;10.892;2023-10-09T02:24:02;17.53;;;7.23;;
33740;SDS011;20065;48.380;10.892;2023-10-09T02:26:55;23.20;;;6.67;;
33740;SDS011;20065;48.380;10.892;2023-10-09T02:29:41;22.77;;;7.70;;
33740;SDS011;20065;48.380;10.892;2023-10-09T02:32:27;18.60;;;6.90;;
33740;SDS011;20065;48.380;10.892;2023-10-09T02:35:13;22.60;;;6.37;;
33740;SDS011;20065;48.380;10.892;2023-10-09T02:38:07;22.23;;;6.83;;
33740;SDS011;20065;48.380;10.892;2023-10-09T02:40:54;18.10;;;6.60;;
33740;SDS011;20065;48.380;10.892;2023-10-09T02:43:49;24.20;;;6.00;;
33740;SDS011;20065;48.380;10.892;2023-10-09T02:46:40;20.00;;;7.50;;
33740;SDS011;20065;48.380;10.892;2023-10-09T02:49:27;18.13;;;6.40;;
33740;SDS011;20065;48.380;10.892;2023-10-09T02:52:14;21.07;;;7.67;;
33740;SDS011;20065;48.380;10.892;2023-10-09T02:55:05;18.97;;;7.80;;
33740;SDS011;20065;48.380;10.892;2023-10-09T02:57:58;25.37;;;7.73;;
33740;SDS011;20065;48.380;10.892;2023-10-09T03:00:56;21.97;;;7.27;;
33740;SDS011;20065;48.380;10.892;2023-10-09T03:03:42;20.50;;;7.83;;
33740;SDS011;20065;48.380;10.892;2023-10-09T03:06:32;18.17;;;6.97;;
33740;SDS011;20065;48.380;10.892;2023-10-09T03:09:23;22.70;;;7.67;;
33740;SDS011;20065;48.380;10.892;2023-10-09T03:12:13;22.00;;;7.60;;
33740;SDS011;20065;48.380;10.892;2023-10-09T03:17:54;24.17;;;6.67;;
33740;SDS011;20065;48.380;10.892;2023-10-09T03:20:40;20.00;;;7.90;;
33740;SDS011;20065;48.380;10.892;2023-10-09T03:23:28;21.00;;;7.43;;
33740;SDS011;20065;48.380;10.892;2023-10-09T03:26:16;29.50;;;7.90;;
33740;SDS011;20065;48.380;10.892;2023-10-09T03:29:03;22.67;;;8.03;;
33740;SDS011;20065;48.380;10.892;2023-10-09T03:31:55;20.03;;;7.23;;
33740;SDS011;20065;48.380;10.892;2023-10-09T03:34:42;14.80;;;6.70;;
33740;SDS011;20065;48.380;10.892;2023-10-09T03:37:30;20.27;;;7.03;;
33740;SDS011;20065;48.380;10.892;2023-10-09T03:40:20;24.40;;;7.13;;
33740;SDS011;20065;48.380;10.892;2023-10-09T03:43:07;20.77;;;7.03;;
33740;SDS011;20065;48.380;10.892;2023-10-09T03:45:56;21.40;;;7.73;;
33740;SDS011;20065;48.380;10.892;2023-10-09T03:48:43;22.37;;;6.73;;
33740;SDS011;20065;48.380;10.892;2023-10-09T03:51:32;22.37;;;6.40;;
33740;SDS011;20065;48.380;10.892;2023-10-09T03:54:19;24.20;;;7.80;;
33740;SDS011;20065;48.380;10.892;2023-10-09T03:57:09;16.40;;;6.57;;
33740;SDS011;20065;48.380;10.892;2023-10-09T03:59:56;17.90;;;7.50;;
33740;SDS011;20065;48.380;10.892;2023-10-09T04:02:42;20.33;;;6.80;;
33740;SDS011;20065;48.380;10.892;2023-10-09T04:05:28;18.93;;;7.47;;
33740;SDS011;20065;48.380;10.892;2023-10-09T04:08:14;26.50;;;7.73;;
33740;SDS011;20065;48.380;10.892;2023-10-09T04:11:07;23.60;;;7.90;;
33740;SDS011;20065;48.380;10.892;2023-10-09T04:14:01;23.63;;;7.97;;
33740;SDS011;20065;48.380;10.892;2023-10-09T04:16:55;21.93;;;7.07;;
33740;SDS011;20065;48.380;10.892;2023-10-09T04:20:00;24.70;;;6.80;;
33740;SDS011;20065;48.380;10.892;2023-10-09T04:23:20;17.10;;;7.10;;
33740;SDS011;20065;48.380;10.892;2023-10-09T04:26:20;20.00;;;6.57;;
33740;SDS011;20065;48.380;10.892;2023-10-09T04:29:06;21.17;;;6.70;;
33740;SDS011;20065;48.380;10.892;2023-10-09T04:31:56;17.70;;;6.33;;
33740;SDS011;20065;48.380;10.892;2023-10-09T04:34:45;21.10;;;7.27;;
33740;SDS011;20065;48.380;10.892;2023-10-09T04:37:34;20.80;;;7.17;;
33740;SDS011;20065;48.380;10.892;2023-10-09T04:40:24;21.70;;;8.03;;
33740;SDS011;20065;48.380;10.892;2023-10-09T04:43:29;18.03;;;7.10;;
33740;SDS011;20065;48.380;10.892;2023-10-09T04:46:18;25.10;;;5.73;;
33740;SDS011;20065;48.380;10.892;2023-10-09T04:49:09;19.10;;;5.67;;
33740;SDS011;20065;48.380;10.892;2023-10-09T04:52:16;18.70;;;5.20;;
33740;SDS011;20065;48.380;10.892;2023-10-09T04:55:15;16.60;;;5.33;;
33740;SDS011;20065;48.380;10.892;2023-10-09T04:58:04;18.63;;;5.40;;
33740;SDS011;20065;48.380;10.892;2023-10-09T05:00:55;19.97;;;5.73;;
33740;SDS011;20065;48.380;10.892;2023-10-09T05:03:43;17.97;;;4.40;;
33740;SDS011;20065;48.380;10.892;2023-10-09T05:06:30;16.43;;;4.67;;
33740;SDS011;20065;48.380;10.892;2023-10-09T05:09:28;14.40;;;4.63;;
33740;SDS011;20065;48.380;10.892;2023-10-09T05:12:35;20.33;;;5.17;;
33740;SDS011;20065;48.380;10.892;2023-10-09T05:15:26;21.40;;;5.47;;
33740;SDS011;20065;48.380;10.892;2023-10-09T05:18:15;17.03;;;5.00;;
33740;SDS011;20065;48.380;10.892;2023-10-09T05:21:02;17.63;;;4.60;;
33740;SDS011;20065;48.380;10.892;2023-10-09T05:24:07;15.37;;;5.10;;
33740;SDS011;20065;48.380;10.892;2023-10-09T05:26:59;21.93;;;5.30;;
33740;SDS011;20065;48.380;10.892;2023-10-09T05:30:04;17.97;;;5.43;;
33740;SDS011;20065;48.380;10.892;2023-10-09T05:33:09;22.63;;;5.63;;
33740;SDS011;20065;48.380;10.892;2023-10-09T05:36:13;16.37;;;4.63;;
33740;SDS011;20065;48.380;10.892;2023-10-09T05:39:10;17.47;;;5.40;;
33740;SDS011;20065;48.380;10.892;2023-10-09T05:42:33;18.27;;;4.90;;
33740;SDS011;20065;48.380;10.892;2023-10-09T05:45:26;18.47;;;4.20;;
33740;SDS011;20065;48.380;10.892;2023-10-09T05:48:36;20.20;;;4.17;;
33740;SDS011;20065;48.380;10.892;2023-10-09T05:51:25;15.53;;;4.63;;
33740;SDS011;20065;48.380;10.892;2023-10-09T05:54:27;19.33;;;4.73;;
33740;SDS011;20065;48.380;10.892;2023-10-09T05:57:31;23.53;;;5.00;;
33740;SDS011;20065;48.380;10.892;2023-10-09T06:00:36;21.40;;;4.80;;
33740;SDS011;20065;48.380;10.892;2023-10-09T06:03:41;13.23;;;4.23;;
33740;SDS011;20065;48.380;10.892;2023-10-09T06:06:46;16.90;;;4.77;;
33740;SDS011;20065;48.380;10.892;2023-10-09T06:09:41;17.80;;;5.13;;
33740;SDS011;20065;48.380;10.892;2023-10-09T06:12:38;13.33;;;4.57;;
33740;SDS011;20065;48.380;10.892;2023-10-09T06:15:35;26.33;;;4.77;;
33740;SDS011;20065;48.380;10.892;2023-10-09T06:18:33;20.20;;;4.70;;
33740;SDS011;20065;48.380;10.892;2023-10-09T06:21:21;14.97;;;3.90;;
33740;SDS011;20065;48.380;10.892;2023-10-09T06:24:25;24.73;;;5.50;;
33740;SDS011;20065;48.380;10.892;2023-10-09T06:27:19;19.07;;;5.77;;
33740;SDS011;20065;48.380;10.892;2023-10-09T06:30:17;15.97;;;4.57;;
33740;SDS011;20065;48.380;10.892;2023-10-09T06:33:03;13.47;;;5.13;;
33740;SDS011;20065;48.380;10.892;2023-10-09T06:36:04;22.13;;;4.70;;
33740;SDS011;20065;48.380;10.892;2023-10-09T06:39:03;16.60;;;4.10;;
33740;SDS011;20065;48.380;10.892;2023-10-09T06:42:07;21.03;;;4.93;;
33740;SDS011;20065;48.380;10.892;2023-10-09T06:45:16;16.17;;;4.60;;
33740;SDS011;20065;48.380;10.892;2023-10-09T06:48:02;15.70;;;4.90;;
33740;SDS011;20065;48.380;10.892;2023-10-09T06:51:14;17.57;;;4.77;;
33740;SDS011;20065;48.380;10.892;2023-10-09T06:54:12;14.60;;;4.00;;
33740;SDS011;20065;48.380;10.892;2023-10-09T06:57:01;19.03;;;4.97;;
33740;SDS011;20065;48.380;10.892;2023-10-09T06:59:58;24.60;;;5.83;;
33740;SDS011;20065;48.380;10.892;2023-10-09T07:03:03;20.00;;;5.40;;
33740;SDS011;20065;48.380;10.892;2023-10-09T07:06:06;17.30;;;4.83;;
33740;SDS011;20065;48.380;10.892;2023-10-09T07:09:12;16.00;;;4.80;;
33740;SDS011;20065;48.380;10.892;2023-10-09T07:11:59;20.03;;;5.57;;
33740;SDS011;20065;48.380;10.892;2023-10-09T07:14:49;18.13;;;4.93;;
33740;SDS011;20065;48.380;10.892;2023-10-09T07:17:35;22.40;;;5.83;;
33740;SDS011;20065;48.380;10.892;2023-10-09T07:20:21;22.80;;;4.77;;
33740;SDS011;20065;48.380;10.892;2023-10-09T07:23:22;15.67;;;4.53;;
33740;SDS011;20065;48.380;10.892;2023-10-09T07:26:09;22.50;;;5.50;;
33740;SDS011;20065;48.380;10.892;2023-10-09T07:29:04;25.67;;;5.00;;
33740;SDS011;20065;48.380;10.892;2023-10-09T07:32:07;11.97;;;4.30;;
33740;SDS011;20065;48.380;10.892;2023-10-09T07:35:00;22.93;;;4.93;;
33740;SDS011;20065;48.380;10.892;2023-10-09T07:37:47;12.40;;;4.17;;
33740;SDS011;20065;48.380;10.892;2023-10-09T07:43:44;16.93;;;4.60;;
33740;SDS011;20065;48.380;10.892;2023-10-09T07:46:31;22.40;;;4.43;;
33740;SDS011;20065;48.380;10.892;2023-10-09T07:49:37;15.60;;;4.67;;
33740;SDS011;20065;48.380;10.892;2023-10-09T07:52:23;20.20;;;4.47;;
33740;SDS011;20065;48.380;10.892;2023-10-09T07:55:11;14.37;;;4.50;;
33740;SDS011;20065;48.380;10.892;2023-10-09T07:58:11;12.57;;;4.13;;
33740;SDS011;20065;48.380;10.892;2023-10-09T08:00:57;18.07;;;4.43;;
33740;SDS011;20065;48.380;10.892;2023-10-09T08:03:46;22.23;;;4.30;;
33740;SDS011;20065;48.380;10.892;2023-10-09T08:06:43;22.17;;;4.90;;
33740;SDS011;20065;48.380;10.892;2023-10-09T08:09:30;24.00;;;4.83;;
33740;SDS011;20065;48.380;10.892;2023-10-09T08:12:34;13.77;;;4.20;;
33740;SDS011;20065;48.380;10.892;2023-10-09T08:15:40;16.70;;;4.40;;
33740;SDS011;20065;48.380;10.892;2023-10-09T08:18:39;16.33;;;4.13;;
33740;SDS011;20065;48.380;10.892;2023-10-09T08:21:30;18.17;;;4.20;;
33740;SDS011;20065;48.380;10.892;2023-10-09T08:24:30;19.47;;;5.60;;
33740;SDS011;20065;48.380;10.892;2023-10-09T08:27:27;16.10;;;5.10;;
33740;SDS011;20065;48.380;10.892;2023-10-09T08:30:14;15.57;;;4.50;;
33740;SDS011;20065;48.380;10.892;2023-10-09T08:33:06;19.13;;;3.73;;
33740;SDS011;20065;48.380;10.892;2023-10-09T08:36:11;19.40;;;5.17;;
33740;SDS011;20065;48.380;10.892;2023-10-09T08:39:00;24.30;;;5.60;;
33740;SDS011;20065;48.380;10.892;2023-10-09T08:42:00;19.60;;;3.87;;
33740;SDS011;20065;48.380;10.892;2023-10-09T08:44:47;24.63;;;5.53;;
33740;SDS011;20065;48.380;10.892;2023-10-09T08:47:34;18.80;;;4.70;;
33740;SDS011;20065;48.380;10.892;2023-10-09T08:50:21;17.40;;;4.77;;
33740;SDS011;20065;48.380;10.892;2023-10-09T08:53:08;23.47;;;5.30;;
33740;SDS011;20065;48.380;10.892;2023-10-09T08:55:56;27.83;;;5.50;;
33740;SDS011;20065;48.380;10.892;2023-10-09T08:58:42;16.40;;;4.20;;
33740;SDS011;20065;48.380;10.892;2023-10-09T09:01:28;13.20;;;4.07;;
33740;SDS011;20065;48.380;10.892;2023-10-09T09:07:29;19.83;;;5.60;;
33740;SDS011;20065;48.380;10.892;2023-10-09T09:10:20;20.03;;;4.87;;
33740;SDS011;20065;48.380;10.892;2023-10-09T09:13:20;14.87;;;4.83;;
33740;SDS011;20065;48.380;10.892;2023-10-09T09:16:13;21.30;;;4.97;;
33740;SDS011;20065;48.380;10.892;2023-10-09T09:19:06;20.50;;;4.80;;
33740;SDS011;20065;48.380;10.892;2023-10-09T09:21:56;20.90;;;5.23;;
33740;SDS011;20065;48.380;10.892;2023-10-09T09:24:57;15.47;;;5.13;;
33740;SDS011;20065;48.380;10.892;2023-10-09T09:27:49;16.80;;;5.27;;
33740;SDS011;20065;48.380;10.892;2023-10-09T09:30:41;21.60;;;5.37;;
33740;SDS011;20065;48.380;10.892;2023-10-09T09:33:28;13.80;;;4.33;;
33740;SDS011;20065;48.380;10.892;2023-10-09T09:36:14;22.23;;;4.83;;
33740;SDS011;20065;48.380;10.892;2023-10-09T09:39:00;13.13;;;4.33;;
33740;SDS011;20065;48.380;10.892;2023-10-09T09:41:50;23.73;;;5.53;;
33740;SDS011;20065;48.380;10.892;2023-10-09T09:44:37;17.70;;;4.90;;
33740;SDS011;20065;48.380;10.892;2023-10-09T09:47:30;13.20;;;4.13;;
33740;SDS011;20065;48.380;10.892;2023-10-09T09:50:21;19.30;;;5.77;;
33740;SDS011;20065;48.380;10.892;2023-10-09T09:53:14;14.83;;;4.47;;
33740;SDS011;20065;48.380;10.892;2023-10-09T09:56:04;12.73;;;4.30;;
33740;SDS011;20065;48.380;10.892;2023-10-09T09:58:51;23.97;;;4.87;;
33740;SDS011;20065;48.380;10.892;2023-10-09T10:01:42;20.03;;;4.67;;
33740;SDS011;20065;48.380;10.892;2023-10-09T10:04:30;21.03;;;4.57;;
33740;SDS011;20065;48.380;10.892;2023-10-09T10:07:20;20.70;;;4.80;;
33740;SDS011;20065;48.380;10.892;2023-10-09T10:16:27;13.27;;;4.33;;
33740;SDS011;20065;48.380;10.892;2023-10-09T10:19:20;18.33;;;3.87;;
33740;SDS011;20065;48.380;10.892;2023-10-09T10:22:23;12.60;;;4.60;;
33740;SDS011;20065;48.380;10.892;2023-10-09T10:28:18;20.03;;;4.80;;
33740;SDS011;20065;48.380;10.892;2023-10-09T10:31:50;21.57;;;4.27;;
33740;SDS011;20065;48.380;10.892;2023-10-09T10:37:52;18.90;;;4.63;;
33740;SDS011;20065;48.380;10.892;2023-10-09T10:40:54;15.33;;;3.77;;
33740;SDS011;20065;48.380;10.892;2023-10-09T10:43:43;13.53;;;4.47;;
33740;SDS011;20065;48.380;10.892;2023-10-09T10:46:33;21.60;;;4.93;;
33740;SDS011;20065;48.380;10.892;2023-10-09T10:49:28;17.07;;;4.90;;
33740;SDS011;20065;48.380;10.892;2023-10-09T10:52:24;18.40;;;3.73;;
33740;SDS011;20065;48.380;10.892;2023-10-09T10:55:21;16.47;;;4.40;;
33740;SDS011;20065;48.380;10.892;2023-10-09T10:58:16;14.53;;;4.50;;
33740;SDS011;20065;48.380;10.892;2023-10-09T11:01:10;24.87;;;5.03;;
33740;SDS011;20065;48.380;10.892;2023-10-09T11:04:10;26.50;;;4.40;;
33740;SDS011;20065;48.380;10.892;2023-10-09T11:06:58;19.97;;;4.47;;
33740;SDS011;20065;48.380;10.892;2023-10-09T11:09:52;14.43;;;3.90;;
33740;SDS011;20065;48.380;10.892;2023-10-09T11:12:45;28.93;;;4.80;;
33740;SDS011;20065;48.380;10.892;2023-10-09T11:15:38;20.33;;;6.23;;
33740;SDS011;20065;48.380;10.892;2023-10-09T11:18:43;19.10;;;4.57;;
33740;SDS011;20065;48.380;10.892;2023-10-09T11:21:31;18.00;;;4.33;;
33740;SDS011;20065;48.380;10.892;2023-10-09T11:24:17;19.87;;;3.93;;
33740;SDS011;20065;48.380;10.892;2023-10-09T11:27:09;23.20;;;4.67;;
33740;SDS011;20065;48.380;10.892;2023-10-09T11:30:04;18.77;;;4.90;;
33740;SDS011;20065;48.380;10.892;2023-10-09T11:33:04;22.80;;;4.67;;
33740;SDS011;20065;48.380;10.892;2023-10-09T11:35:54;16.03;;;4.60;;
33740;SDS011;20065;48.380;10.892;2023-10-09T11:38:44;21.87;;;4.37;;
33740;SDS011;20065;48.380;10.892;2023-10-09T11:41:31;19.33;;;3.90;;
33740;SDS011;20065;48.380;10.892;2023-10-09T11:44:33;19.57;;;4.17;;
33740;SDS011;20065;48.380;10.892;2023-10-09T11:47:39;15.67;;;4.07;;
33740;SDS011;20065;48.380;10.892;2023-10-09T11:53:41;15.33;;;4.33;;
33740;SDS011;20065;48.380;10.892;2023-10-09T11:56:29;24.07;;;4.67;;
33740;SDS011;20065;48.380;10.892;2023-10-09T11:59:16;19.10;;;4.60;;
33740;SDS011;20065;48.380;10.892;2023-10-09T12:02:02;11.00;;;4.17;;
33740;SDS011;20065;48.380;10.892;2023-10-09T12:04:58;18.23;;;4.83;;
33740;SDS011;20065;48.380;10.892;2023-10-09T12:07:44;24.40;;;5.07;;
33740;SDS011;20065;48.380;10.892;2023-10-09T12:10:31;18.00;;;4.27;;
33740;SDS011;20065;48.380;10.892;2023-10-09T12:13:19;18.00;;;4.80;;
33740;SDS011;20065;48.380;10.892;2023-10-09T12:16:08;21.30;;;5.70;;
33740;SDS011;20065;48.380;10.892;2023-10-09T12:18:55;14.80;;;4.60;;
33740;SDS011;20065;48.380;10.892;2023-10-09T12:21:41;17.73;;;4.90;;
33740;SDS011;20065;48.380;10.892;2023-10-09T12:24:28;17.90;;;4.97;;
33740;SDS011;20065;48.380;10.892;2023-10-09T12:27:14;24.20;;;5.57;;
33740;SDS011;20065;48.380;10.892;2023-10-09T12:30:05;16.47;;;4.80;;
33740;SDS011;20065;48.380;10.892;2023-10-09T12:32:53;15.20;;;5.40;;
33740;SDS011;20065;48.380;10.892;2023-10-09T12:35:40;21.73;;;5.07;;
33740;SDS011;20065;48.380;10.892;2023-10-09T12:38:27;16.50;;;5.23;;
33740;SDS011;20065;48.380;10.892;2023-10-09T12:41:17;11.60;;;4.40;;
33740;SDS011;20065;48.380;10.892;2023-10-09T12:44:12;15.67;;;4.13;;
33740;SDS011;20065;48.380;10.892;2023-10-09T12:47:05;12.03;;;3.80;;
33740;SDS011;20065;48.380;10.892;2023-10-09T12:49:51;12.53;;;4.33;;
33740;SDS011;20065;48.380;10.892;2023-10-09T12:52:39;19.20;;;5.37;;
33740;SDS011;20065;48.380;10.892;2023-10-09T12:55:26;15.20;;;4.50;;
33740;SDS011;20065;48.380;10.892;2023-10-09T12:58:17;19.33;;;5.57;;
33740;SDS011;20065;48.380;10.892;2023-10-09T13:01:04;17.53;;;4.60;;
33740;SDS011;20065;48.380;10.892;2023-10-09T13:03:57;25.43;;;5.50;;
33740;SDS011;20065;48.380;10.892;2023-10-09T13:06:47;25.00;;;4.70;;
33740;SDS011;20065;48.380;10.892;2023-10-09T13:09:37;22.00;;;5.47;;
33740;SDS011;20065;48.380;10.892;2023-10-09T13:12:29;18.77;;;4.70;;
33740;SDS011;20065;48.380;10.892;2023-10-09T13:15:16;14.90;;;4.20;;
33740;SDS011;20065;48.380;10.892;2023-10-09T13:18:06;15.30;;;4.90;;
33740;SDS011;20065;48.380;10.892;2023-10-09T13:20:52;13.40;;;5.20;;
33740;SDS011;20065;48.380;10.892;2023-10-09T13:23:38;15.70;;;4.47;;
33740;SDS011;20065;48.380;10.892;2023-10-09T13:26:25;13.80;;;4.50;;
33740;SDS011;20065;48.380;10.892;2023-10-09T13:29:15;19.40;;;5.30;;
33740;SDS011;20065;48.380;10.892;2023-10-09T13:32:07;22.77;;;4.70;;
33740;SDS011;20065;48.380;10.892;2023-10-09T13:35:04;14.73;;;5.10;;
33740;SDS011;20065;48.380;10.892;2023-10-09T13:37:51;19.07;;;4.97;;
33740;SDS011;20065;48.380;10.892;2023-10-09T13:40:39;18.50;;;6.00;;
33740;SDS011;20065;48.380;10.892;2023-10-09T13:43:25;16.63;;;5.07;;
33740;SDS011;20065;48.380;10.892;2023-10-09T13:46:13;21.67;;;4.33;;
33740;SDS011;20065;48.380;10.892;2023-10-09T13:49:03;18.40;;;5.43;;
33740;SDS011;20065;48.380;10.892;2023-10-09T13:51:49;16.57;;;4.97;;
33740;SDS011;20065;48.380;10.892;2023-10-09T13:54:35;21.33;;;4.90;;
33740;SDS011;20065;48.380;10.892;2023-10-09T13:57:21;14.10;;;4.10;;
33740;SDS011;20065;48.380;10.892;2023-10-09T14:00:16;21.17;;;5.03;;
33740;SDS011;20065;48.380;10.892;2023-10-09T14:03:17;14.20;;;4.93;;
33740;SDS011;20065;48.380;10.892;2023-10-09T14:06:05;13.90;;;4.77;;
33740;SDS011;20065;48.380;10.892;2023-10-09T14:09:02;19.03;;;5.67;;
33740;SDS011;20065;48.380;10.892;2023-10-09T14:11:55;14.10;;;4.40;;
33740;SDS011;20065;48.380;10.892;2023-10-09T14:14:52;23.43;;;5.40;;
33740;SDS011;20065;48.380;10.892;2023-10-09T14:17:41;13.20;;;4.70;;
33740;SDS011;20065;48.380;10.892;2023-10-09T14:20:27;20.67;;;5.00;;
33740;SDS011;20065;48.380;10.892;2023-10-09T14:23:17;16.67;;;5.63;;
33740;SDS011;20065;48.380;10.892;2023-10-09T14:26:06;17.47;;;5.27;;
33740;SDS011;20065;48.380;10.892;2023-10-09T14:28:52;20.43;;;4.97;;
33740;SDS011;20065;48.380;10.892;2023-10-09T14:31:45;20.60;;;5.30;;
33740;SDS011;20065;48.380;10.892;2023-10-09T14:34:45;12.80;;;5.03;;
33740;SDS011;20065;48.380;10.892;2023-10-09T14:37:40;13.50;;;4.60;;
33740;SDS011;20065;48.380;10.892;2023-10-09T14:40:26;19.33;;;5.87;;
33740;SDS011;20065;48.380;10.892;2023-10-09T14:43:17;19.40;;;5.10;;
33740;SDS011;20065;48.380;10.892;2023-10-09T14:46:07;17.10;;;4.63;;
33740;SDS011;20065;48.380;10.892;2023-10-09T14:48:58;13.53;;;4.60;;
33740;SDS011;20065;48.380;10.892;2023-10-09T14:51:46;25.40;;;5.20;;
33740;SDS011;20065;48.380;10.892;2023-10-09T14:54:32;16.10;;;5.13;;
33740;SDS011;20065;48.380;10.892;2023-10-09T14:57:18;21.30;;;4.70;;
33740;SDS011;20065;48.380;10.892;2023-10-09T15:00:04;16.20;;;4.67;;
33740;SDS011;20065;48.380;10.892;2023-10-09T15:02:59;20.23;;;5.10;;
33740;SDS011;20065;48.380;10.892;2023-10-09T15:05:46;17.93;;;4.60;;
33740;SDS011;20065;48.380;10.892;2023-10-09T15:08:35;16.90;;;4.40;;
33740;SDS011;20065;48.380;10.892;2023-10-09T15:11:22;19.77;;;5.50;;
33740;SDS011;20065;48.380;10.892;2023-10-09T15:14:10;13.30;;;4.20;;
33740;SDS011;20065;48.380;10.892;2023-10-09T15:16:56;18.30;;;5.20;;
33740;SDS011;20065;48.380;10.892;2023-10-09T15:19:42;28.33;;;6.00;;
33740;SDS011;20065;48.380;10.892;2023-10-09T15:22:31;18.50;;;5.07;;
33740;SDS011;20065;48.380;10.892;2023-10-09T15:25:22;21.40;;;5.70;;
33740;SDS011;20065;48.380;10.892;2023-10-09T15:28:08;17.93;;;4.90;;
33740;SDS011;20065;48.380;10.892;2023-10-09T15:30:55;23.03;;;4.47;;
33740;SDS011;20065;48.380;10.892;2023-10-09T15:33:41;12.80;;;5.03;;
33740;SDS011;20065;48.380;10.892;2023-10-09T15:36:33;19.03;;;5.10;;
33740;SDS011;20065;48.380;10.892;2023-10-09T15:39:21;16.27;;;4.93;;
33740;SDS011;20065;48.380;10.892;2023-10-09T15:42:09;18.63;;;4.33;;
33740;SDS011;20065;48.380;10.892;2023-10-09T15:44:59;23.93;;;6.03;;
33740;SDS011;20065;48.380;10.892;2023-10-09T15:47:46;19.13;;;4.50;;
33740;SDS011;20065;48.380;10.892;2023-10-09T15:50:32;15.93;;;4.80;;
33740;SDS011;20065;48.380;10.892;2023-10-09T15:53:20;23.30;;;4.50;;
33740;SDS011;20065;48.380;10.892;2023-10-09T15:56:07;14.90;;;4.50;;
33740;SDS011;20065;48.380;10.892;2023-10-09T15:58:53;16.70;;;5.03;;
33740;SDS011;20065;48.380;10.892;2023-10-09T16:01:40;18.03;;;4.40;;
33740;SDS011;20065;48.380;10.892;2023-10-09T16:04:28;12.93;;;4.70;;
33740;SDS011;20065;48.380;10.892;2023-10-09T16:07:25;13.63;;;4.37;;
33740;SDS011;20065;48.380;10.892;2023-10-09T16:10:12;17.63;;;4.93;;
33740;SDS011;20065;48.380;10.892;2023-10-09T16:12:58;16.60;;;5.00;;
33740;SDS011;20065;48.380;10.892;2023-10-09T16:15:45;10.93;;;4.10;;
33740;SDS011;20065;48.380;10.892;2023-10-09T16:18:31;16.63;;;4.20;;
33740;SDS011;20065;48.380;10.892;2023-10-09T16:21:19;15.57;;;4.43;;
33740;SDS011;20065;48.380;10.892;2023-10-09T16:24:06;18.20;;;5.23;;
33740;SDS011;20065;48.380;10.892;2023-10-09T16:26:54;16.00;;;4.67;;
33740;SDS011;20065;48.380;10.892;2023-10-09T16:29:40;24.37;;;5.37;;
33740;SDS011;20065;48.380;10.892;2023-10-09T16:32:30;19.50;;;5.83;;
33740;SDS011;20065;48.380;10.892;2023-10-09T16:35:17;18.40;;;6.50;;
33740;SDS011;20065;48.380;10.892;2023-10-09T16:38:03;19.43;;;4.67;;
33740;SDS011;20065;48.380;10.892;2023-10-09T16:40:54;21.97;;;4.90;;
33740;SDS011;20065;48.380;10.892;2023-10-09T16:43:41;19.17;;;4.80;;
33740;SDS011;20065;48.380;10.892;2023-10-09T16:46:28;24.20;;;4.73;;
33740;SDS011;20065;48.380;10.892;2023-10-09T16:49:14;27.17;;;5.60;;
33740;SDS011;20065;48.380;10.892;2023-10-09T16:52:00;16.00;;;4.77;;
33740;SDS011;20065;48.380;10.892;2023-10-09T16:54:52;17.10;;;5.10;;
33740;SDS011;20065;48.380;10.892;2023-10-09T16:57:39;25.90;;;5.27;;
33740;SDS011;20065;48.380;10.892;2023-10-09T17:00:26;24.73;;;5.47;;
33740;SDS011;20065;48.380;10.892;2023-10-09T17:03:20;17.50;;;4.50;;
33740;SDS011;20065;48.380;10.892;2023-10-09T17:06:09;16.07;;;4.27;;
33740;SDS011;20065;48.380;10.892;2023-10-09T17:08:56;19.73;;;5.60;;